Siwa, Egypt
Current Conditions -  °F | °C
As of 12:00 AM on Saturday 01 Nov 2014 (Local Time) from HEMM Reporting Station
Broken Clouds Broken Clouds  
Wind Chill: 66°   Ceiling: 2000
Heat Index: 66°   Visibility: 6mi
Dew Point: 59°   Wind: 5mph
Humidity: 78%   Direction: 150°SSE
Pressure: 30"   Gusts: NA
Location:  29.2°N, 25.52°E
Report Text: HEMM 312200Z 15004KT 9999 BKN020 19/15 Q1016 NOSIG
Loading
Personal Weather Stations






























Interactive Weather Map
Tropical Storm Tracking
New forecast layout! Learn more

10-Day Weather Forecast

Advertisements
Track Severe Weather on mobile